Time,TemperatureF,DewpointF,PressureIn,WindDirection,WindDirectionDegrees,WindSpeedMPH,WindSpeedGustMPH,Humidity,HourlyPrecipIn,Conditions,Clouds,dailyrainin,SoftwareType,DateUTC
2013-10-23 00:14:00,44.7,44.0,29.73,SSW,212,0.0,0.0,96,0.00,,,0.00,weatherlink.com 1.10,2013-10-23 04:14:00,
2013-10-23 00:29:00,44.4,44.0,29.73,SSW,212,0.0,0.0,97,0.00,,,0.00,weatherlink.com 1.10,2013-10-23 04:29:00,
2013-10-23 00:44:00,43.9,43.0,29.73,SSW,212,0.0,1.0,97,0.00,,,0.00,weatherlink.com 1.10,2013-10-23 04:44:00,
2013-10-23 00:59:00,43.5,43.0,29.73,SSW,212,0.0,0.0,97,0.00,,,0.00,weatherlink.com 1.10,2013-10-23 04:59:00,
2013-10-23 01:14:00,43.1,42.0,29.73,SSW,212,0.0,0.0,97,0.00,,,0.00,weatherlink.com 1.10,2013-10-23 05:14:00,
2013-10-23 01:29:00,42.7,42.0,29.73,SSW,212,0.0,0.0,97,0.00,,,0.00,weatherlink.com 1.10,2013-10-23 05:29:00,
2013-10-23 01:45:00,43.1,42.0,29.73,South,173,0.0,1.0,97,0.00,,,0.00,weatherlink.com 1.10,2013-10-23 05:45:00,
2013-10-23 02:00:00,42.5,42.0,29.73,South,176,0.0,0.0,97,0.00,,,0.00,weatherlink.com 1.10,2013-10-23 06:00:00,
2013-10-23 02:25:00,41.5,41.0,29.73,SSW,201,0.0,0.0,97,0.00,,,0.00,weatherlink.com 1.10,2013-10-23 06:25:00,
2013-10-23 02:30:00,41.4,41.0,29.73,SSW,202,0.0,0.0,97,0.00,,,0.00,weatherlink.com 1.10,2013-10-23 06:30:00,
2013-10-23 02:45:00,41.3,41.0,29.73,SSW,204,0.0,1.0,97,0.00,,,0.00,weatherlink.com 1.10,2013-10-23 06:45:00,
2013-10-23 03:00:00,40.8,40.0,29.74,SSW,204,0.0,0.0,97,0.00,,,0.00,weatherlink.com 1.10,2013-10-23 07:00:00,
2013-10-23 03:15:00,41.4,41.0,29.74,SSE,158,0.0,1.0,98,0.00,,,0.00,weatherlink.com 1.10,2013-10-23 07:15:00,
2013-10-23 03:30:00,40.7,40.0,29.74,SSW,211,1.0,1.0,97,0.00,,,0.00,weatherlink.com 1.10,2013-10-23 07:30:00,
2013-10-23 03:45:00,40.7,40.0,29.75,South,171,0.0,1.0,98,0.00,,,0.00,weatherlink.com 1.10,2013-10-23 07:45:00,
2013-10-23 04:00:00,40.4,40.0,29.75,South,179,0.0,0.0,98,0.00,,,0.00,weatherlink.com 1.10,2013-10-23 08:00:00,
2013-10-23 04:15:00,40.5,40.0,29.75,WSW,243,0.0,2.0,98,0.00,,,0.00,weatherlink.com 1.10,2013-10-23 08:15:00,
2013-10-23 04:30:00,39.9,39.0,29.74,SW,219,0.0,0.0,98,0.00,,,0.00,weatherlink.com 1.10,2013-10-23 08:30:00,
2013-10-23 04:45:00,39.6,39.0,29.75,SW,219,0.0,1.0,98,0.00,,,0.00,weatherlink.com 1.10,2013-10-23 08:45:00,
2013-10-23 05:00:00,39.5,39.0,29.75,SW,219,0.0,0.0,98,0.00,,,0.00,weatherlink.com 1.10,2013-10-23 09:00:00,
2013-10-23 05:15:00,39.8,39.0,29.75,SSE,165,0.0,1.0,98,0.00,,,0.00,weatherlink.com 1.10,2013-10-23 09:15:00,
2013-10-23 05:30:00,39.7,39.0,29.75,SW,226,1.0,1.0,98,0.00,,,0.00,weatherlink.com 1.10,2013-10-23 09:30:00,
2013-10-23 05:45:00,38.5,38.0,29.74,SW,225,0.0,1.0,97,0.00,,,0.00,weatherlink.com 1.10,2013-10-23 09:45:00,
2013-10-23 06:00:00,38.3,38.0,29.74,SW,222,0.0,1.0,98,0.00,,,0.00,weatherlink.com 1.10,2013-10-23 10:00:00,
2013-10-23 06:15:00,37.9,37.0,29.74,SW,222,0.0,1.0,98,0.00,,,0.00,weatherlink.com 1.10,2013-10-23 10:15:00,
2013-10-23 06:30:00,37.6,37.0,29.74,SW,222,0.0,0.0,98,0.00,,,0.00,weatherlink.com 1.10,2013-10-23 10:30:00,
2013-10-23 06:45:00,37.3,37.0,29.74,SW,221,0.0,0.0,98,0.00,,,0.00,weatherlink.com 1.10,2013-10-23 10:45:00,
2013-10-23 07:00:00,36.9,36.0,29.74,SW,222,0.0,0.0,98,0.00,,,0.00,weatherlink.com 1.10,2013-10-23 11:00:00,
2013-10-23 07:15:00,36.3,36.0,29.74,SW,229,1.0,1.0,98,0.00,,,0.00,weatherlink.com 1.10,2013-10-23 11:15:00,
2013-10-23 07:30:00,36.5,36.0,29.74,SW,232,0.0,1.0,98,0.00,,,0.00,weatherlink.com 1.10,2013-10-23 11:30:00,
2013-10-23 07:45:00,37.3,37.0,29.74,SW,229,0.0,1.0,97,0.00,,,0.00,weatherlink.com 1.10,2013-10-23 11:45:00,
2013-10-23 08:00:00,38.5,38.0,29.74,SW,226,0.0,1.0,98,0.00,,,0.00,weatherlink.com 1.10,2013-10-23 12:00:00,
2013-10-23 08:15:00,39.8,39.0,29.73,SW,229,1.0,1.0,97,0.00,,,0.00,weatherlink.com 1.10,2013-10-23 12:15:00,
2013-10-23 08:30:00,41.3,41.0,29.73,SW,226,0.0,1.0,98,0.00,,,0.00,weatherlink.com 1.10,2013-10-23 12:30:00,
2013-10-23 08:45:00,42.5,42.0,29.73,SW,214,0.0,1.0,98,0.00,,,0.00,weatherlink.com 1.10,2013-10-23 12:45:00,
2013-10-23 09:00:00,44.2,43.0,29.73,SW,221,0.0,1.0,97,0.00,,,0.00,weatherlink.com 1.10,2013-10-23 13:00:00,
2013-10-23 09:15:00,46.0,45.0,29.73,SSW,200,0.0,1.0,97,0.00,,,0.00,weatherlink.com 1.10,2013-10-23 13:15:00,
2013-10-23 09:30:00,46.8,46.0,29.74,South,172,0.0,1.0,95,0.00,,,0.00,weatherlink.com 1.10,2013-10-23 13:30:00,
2013-10-23 09:45:00,47.7,45.0,29.73,WSW,248,2.0,2.0,91,0.00,,,0.00,weatherlink.com 1.10,2013-10-23 13:45:00,
2013-10-23 10:00:00,48.4,45.0,29.73,SSW,200,0.0,1.0,87,0.00,,,0.00,weatherlink.com 1.10,2013-10-23 14:00:00,
2013-10-23 10:16:00,49.1,42.0,29.73,NNE,30,2.0,5.0,77,0.00,,,0.00,weatherlink.com 1.10,2013-10-23 14:16:00,
2013-10-23 10:31:00,49.9,40.0,29.72,ENE,68,2.0,3.0,69,0.00,,,0.00,weatherlink.com 1.10,2013-10-23 14:31:00,
2013-10-23 10:46:00,50.6,36.0,29.72,WSW,242,1.0,4.0,58,0.00,,,0.00,weatherlink.com 1.10,2013-10-23 14:46:00,
2013-10-23 11:01:00,50.9,35.0,29.71,SW,229,0.0,4.0,56,0.00,,,0.00,weatherlink.com 1.10,2013-10-23 15:01:00,
2013-10-23 11:16:00,51.4,35.0,29.70,WSW,242,1.0,4.0,53,0.00,,,0.00,weatherlink.com 1.10,2013-10-23 15:16:00,
2013-10-23 11:31:00,50.6,37.0,29.70,WNW,295,3.0,3.0,60,0.00,,,0.00,weatherlink.com 1.10,2013-10-23 15:31:00,
2013-10-23 11:46:00,51.8,38.0,29.69,ESE,113,1.0,3.0,60,0.00,,,0.00,weatherlink.com 1.10,2013-10-23 15:46:00,
2013-10-23 12:01:00,52.7,36.0,29.68,SW,225,0.0,2.0,53,0.00,,,0.00,weatherlink.com 1.10,2013-10-23 16:01:00,
2013-10-23 12:16:00,53.0,37.0,29.66,WSW,248,3.0,3.0,55,0.00,,,0.00,weatherlink.com 1.10,2013-10-23 16:16:00,
2013-10-23 12:31:00,53.7,38.0,29.66,SSE,158,1.0,1.0,55,0.00,,,0.00,weatherlink.com 1.10,2013-10-23 16:31:00,
2013-10-23 12:47:00,52.6,36.0,29.66,SSE,150,1.0,3.0,53,0.00,,,0.00,weatherlink.com 1.10,2013-10-23 16:47:00,
2013-10-23 13:01:00,52.2,37.0,29.65,SE,141,2.0,4.0,56,0.00,,,0.00,weatherlink.com 1.10,2013-10-23 17:01:00,
2013-10-23 13:16:00,51.6,38.0,29.65,SE,138,7.0,8.0,60,0.00,,,0.00,weatherlink.com 1.10,2013-10-23 17:16:00,
2013-10-23 13:31:00,51.5,37.0,29.63,SSE,149,4.0,8.0,58,0.00,,,0.00,weatherlink.com 1.10,2013-10-23 17:31:00,
2013-10-23 13:46:00,51.4,39.0,29.63,SE,139,7.0,8.0,62,0.00,,,0.00,weatherlink.com 1.10,2013-10-23 17:46:00,
2013-10-23 14:01:00,51.4,38.0,29.62,SE,132,5.0,8.0,60,0.00,,,0.00,weatherlink.com 1.10,2013-10-23 18:01:00,
2013-10-23 14:16:00,51.2,38.0,29.62,SE,139,6.0,8.0,62,0.00,,,0.00,weatherlink.com 1.10,2013-10-23 18:16:00,
2013-10-23 14:31:00,51.0,38.0,29.61,SE,143,5.0,9.0,62,0.00,,,0.00,weatherlink.com 1.10,2013-10-23 18:31:00,
2013-10-23 15:01:00,50.9,38.0,29.61,SE,138,3.0,7.0,61,0.00,,,0.00,weatherlink.com 1.10,2013-10-23 19:01:00,
2013-10-23 15:16:00,50.8,39.0,29.60,SE,143,5.0,7.0,64,0.00,,,0.00,weatherlink.com 1.10,2013-10-23 19:16:00,
2013-10-23 15:31:00,50.6,37.0,29.59,SE,127,4.0,6.0,61,0.00,,,0.00,weatherlink.com 1.10,2013-10-23 19:31:00,
2013-10-23 15:46:00,50.5,38.0,29.59,SE,139,4.0,5.0,63,0.00,,,0.00,weatherlink.com 1.10,2013-10-23 19:46:00,
2013-10-23 16:01:00,50.5,39.0,29.59,SE,138,3.0,4.0,65,0.00,,,0.00,weatherlink.com 1.10,2013-10-23 20:01:00,
2013-10-23 16:16:00,50.4,39.0,29.58,SE,143,2.0,4.0,65,0.00,,,0.00,weatherlink.com 1.10,2013-10-23 20:16:00,
2013-10-23 16:31:00,50.3,39.0,29.57,SE,146,2.0,4.0,66,0.00,,,0.00,weatherlink.com 1.10,2013-10-23 20:31:00,
2013-10-23 16:46:00,50.0,40.0,29.58,SSE,152,2.0,5.0,69,0.00,,,0.00,weatherlink.com 1.10,2013-10-23 20:46:00,
2013-10-23 17:01:00,49.9,40.0,29.58,South,172,0.0,2.0,70,0.00,,,0.00,weatherlink.com 1.10,2013-10-23 21:01:00,
2013-10-23 17:16:00,49.6,39.0,29.59,SE,143,2.0,3.0,68,0.00,,,0.00,weatherlink.com 1.10,2013-10-23 21:16:00,
2013-10-23 17:31:00,49.3,40.0,29.59,SSE,160,0.0,2.0,71,0.00,,,0.00,weatherlink.com 1.10,2013-10-23 21:31:00,
2013-10-23 17:46:00,48.6,40.0,29.58,South,170,0.0,0.0,72,0.00,,,0.00,weatherlink.com 1.10,2013-10-23 21:46:00,
2013-10-23 18:01:00,48.5,42.0,29.59,SSE,163,0.0,2.0,78,0.00,,,0.00,weatherlink.com 1.10,2013-10-23 22:01:00,
2013-10-23 18:16:00,47.6,41.0,29.59,South,177,0.0,1.0,77,0.00,,,0.00,weatherlink.com 1.10,2013-10-23 22:16:00,
2013-10-23 18:31:00,47.0,41.0,29.59,SW,219,0.0,0.0,81,0.00,,,0.00,weatherlink.com 1.10,2013-10-23 22:31:00,
2013-10-23 18:46:00,46.5,42.0,29.59,SW,219,0.0,1.0,83,0.00,,,0.00,weatherlink.com 1.10,2013-10-23 22:46:00,
2013-10-23 19:02:00,46.0,42.0,29.59,SW,224,0.0,0.0,86,0.00,,,0.00,weatherlink.com 1.10,2013-10-23 23:02:00,
2013-10-23 19:16:00,45.4,42.0,29.59,SW,222,0.0,0.0,86,0.00,,,0.00,weatherlink.com 1.10,2013-10-23 23:16:00,
2013-10-23 19:32:00,45.2,42.0,29.58,SW,222,0.0,0.0,87,0.00,,,0.00,weatherlink.com 1.10,2013-10-23 23:32:00,
2013-10-23 19:47:00,44.8,42.0,29.58,SW,222,0.0,0.0,88,0.00,,,0.00,weatherlink.com 1.10,2013-10-23 23:47:00,
2013-10-23 20:02:00,44.5,41.0,29.57,SW,222,0.0,1.0,88,0.00,,,0.00,weatherlink.com 1.10,2013-10-24 00:02:00,
2013-10-23 20:17:00,44.0,41.0,29.57,SW,221,0.0,0.0,88,0.00,,,0.00,weatherlink.com 1.10,2013-10-24 00:17:00,
2013-10-23 20:32:00,44.3,41.0,29.57,SW,221,0.0,0.0,89,0.00,,,0.00,weatherlink.com 1.10,2013-10-24 00:32:00,
2013-10-23 20:47:00,44.1,41.0,29.58,SW,221,0.0,0.0,90,0.00,,,0.00,weatherlink.com 1.10,2013-10-24 00:47:00,
2013-10-23 21:02:00,44.1,41.0,29.57,SW,221,0.0,1.0,90,0.00,,,0.00,weatherlink.com 1.10,2013-10-24 01:02:00,
2013-10-23 21:17:00,43.9,42.0,29.59,SW,221,0.0,0.0,91,0.00,,,0.00,weatherlink.com 1.10,2013-10-24 01:17:00,
2013-10-23 21:32:00,43.9,42.0,29.59,SW,221,0.0,1.0,91,0.00,,,0.00,weatherlink.com 1.10,2013-10-24 01:32:00,
2013-10-23 21:47:00,43.9,42.0,29.59,SW,221,0.0,0.0,91,0.00,,,0.00,weatherlink.com 1.10,2013-10-24 01:47:00,
2013-10-23 22:02:00,43.9,42.0,29.60,SW,221,0.0,0.0,92,0.00,,,0.00,weatherlink.com 1.10,2013-10-24 02:02:00,
2013-10-23 22:17:00,44.1,42.0,29.59,SW,221,0.0,0.0,92,0.00,,,0.00,weatherlink.com 1.10,2013-10-24 02:17:00,
2013-10-23 22:32:00,44.1,42.0,29.59,SW,221,0.0,0.0,93,0.00,,,0.00,weatherlink.com 1.10,2013-10-24 02:32:00,
2013-10-23 22:47:00,44.0,42.0,29.58,SW,221,0.0,1.0,93,0.00,,,0.00,weatherlink.com 1.10,2013-10-24 02:47:00,
2013-10-23 23:02:00,43.9,42.0,29.57,SW,221,0.0,0.0,93,0.00,,,0.00,weatherlink.com 1.10,2013-10-24 03:02:00,
2013-10-23 23:17:00,43.8,42.0,29.57,SW,221,0.0,0.0,93,0.00,,,0.00,weatherlink.com 1.10,2013-10-24 03:17:00,
2013-10-23 23:32:00,43.5,42.0,29.56,SW,221,0.0,1.0,93,0.00,,,0.00,weatherlink.com 1.10,2013-10-24 03:32:00,
2013-10-23 23:47:00,43.7,42.0,29.56,SW,217,0.0,1.0,94,0.00,,,0.00,weatherlink.com 1.10,2013-10-24 03:47:00,